Overview Statistics Trail Chart Weather Telemetry Raw packets
 

This is the latest recevied weather packets stored in our database for station/object PTG2-WX. If no packets are shown the sender has not sent any weather packets the latest 10 day(s).

<< 1 2 3 4 >>
Time Temp. Humidity Pressure Rain* Wind** Luminosity Snow
1788700635 28.33° C 34% 1011.1 hPa - - - -
1788697033 28.33° C 33% 1011.5 hPa - - - -
1788693434 28.89° C 33% 1011.7 hPa - - - -
1788689834 28.33° C 34% 1012.4 hPa - - - -
1788686233 27.78° C 35% 1013 hPa - - - -
1788682634 27.22° C 38% 1014.1 hPa - - - -
1788679034 26.11° C 43% 1015 hPa - - - -
1788675434 24.44° C 47% 1015.8 hPa - - - -
1788671834 22.22° C 57% 1016.1 hPa - - - -
1788668234 17.78° C 71% 1016.5 hPa - - - -
1788664635 15° C 80% 1016.9 hPa - - - -
1788661034 14.44° C 80% 1017 hPa - - - -
1788657434 15° C 79% 1017.2 hPa - - - -
1788653835 15.56° C 78% 1017.4 hPa - - - -
1788650268 16.67° C 76% 1017.4 hPa - - - -
1788646634 16.67° C 73% 1017.7 hPa - - - -
1788643034 17.78° C 71% 1017.6 hPa - - - -
1788639434 18.33° C 69% 1018.1 hPa - - - -
1788635834 18.89° C 66% 1018 hPa - - - -
1788632234 19.44° C 63% 1018.3 hPa - - - -
1788628634 20° C 64% 1017.5 hPa - - - -
1788625034 21.67° C 57% 1016.6 hPa - - - -
1788621434 24.44° C 48% 1015.9 hPa - - - -
1788617834 26.11° C 42% 1015.7 hPa - - - -
1788614234 26.67° C 41% 1015.6 hPa - - - -

* Rain since midnight (hover to see other rain measurements)
** Current wind speed in m/s (hover to see current wind gust speed)